Time;durP1;ratioP1;P1;durP2;ratioP2;P2;SDS_P1;SDS_P2;PMS_P1;PMS_P2;Temp;Humidity;BMP_temperature;BMP_pressure;BME280_temperature;BME280_humidity;BME280_pressure;Samples;Min_cycle;Max_cycle;Signal;HPM_P1;HPM_P2
2024/01/28 00:02:07;;;;;;;7.73;4.07;;;;;;;;;;5086916;28;20205;-65
2024/01/28 00:04:34;;;;;;;8.83;4.57;;;;;;;;;;5087306;28;20232;-64
2024/01/28 00:07:01;;;;;;;9.97;4.93;;;;;;;;;;5086179;28;20215;-64
2024/01/28 00:09:28;;;;;;;6.87;4.30;;;;;;;;;;5086704;28;20656;-64
2024/01/28 00:11:56;;;;;;;7.53;4.53;;;;;;;;;;5086455;28;20205;-64
2024/01/28 00:14:23;;;;;;;9.73;4.43;;;;;;;;;;5086603;28;20208;-64
2024/01/28 00:16:50;;;;;;;12.30;5.47;;;;;;;;;;5087211;28;20237;-64
2024/01/28 00:19:18;;;;;;;7.40;5.00;;;;;;;;;;5088126;28;20582;-64
2024/01/28 00:21:45;;;;;;;11.87;6.20;;;;;;;;;;5086484;28;20220;-64
2024/01/28 00:24:12;;;;;;;9.23;4.57;;;;;;;;;;5086910;28;20223;-64
2024/01/28 00:26:39;;;;;;;10.30;4.87;;;;;;;;;;5087346;28;20216;-64
2024/01/28 00:29:08;;;;;;;6.40;4.43;;;;;;;;;;5090052;28;20577;-64
2024/01/28 00:31:36;;;;;;;11.60;4.90;;;;;;;;;;5086597;28;20209;-64
2024/01/28 00:34:03;;;;;;;10.00;4.70;;;;;;;;;;5086000;28;20277;-64
2024/01/28 00:36:30;;;;;;;15.63;5.30;;;;;;;;;;5071370;28;20213;-64
2024/01/28 00:38:57;;;;;;;9.10;5.03;;;;;;;;;;5090330;28;20209;-64
2024/01/28 00:41:26;;;;;;;13.23;5.00;;;;;;;;;;5089830;28;20689;-65
2024/01/28 00:43:53;;;;;;;9.03;4.50;;;;;;;;;;5090760;28;20231;-65
2024/01/28 00:46:23;;;;;;;7.33;4.40;;;;;;;;;;5091538;28;20204;-65
2024/01/28 00:48:50;;;;;;;9.10;4.20;;;;;;;;;;5090192;28;20213;-64
2024/01/28 00:51:17;;;;;;;9.03;4.80;;;;;;;;;;5090655;28;20215;-65
2024/01/28 00:53:44;;;;;;;14.83;5.20;;;;;;;;;;5090798;28;20237;-65
2024/01/28 00:56:16;;;;;;;13.03;4.97;;;;;;;;;;5089866;28;20212;-65
2024/01/28 00:58:43;;;;;;;7.73;3.57;;;;;;;;;;5090430;28;20237;-64
2024/01/28 01:01:10;;;;;;;12.43;4.07;;;;;;;;;;5086276;28;20212;-64
2024/01/28 01:03:38;;;;;;;6.00;4.40;;;;;;;;;;5071869;28;20280;-64
2024/01/28 01:06:07;;;;;;;7.00;4.57;;;;;;;;;;5085925;28;20208;-64
2024/01/28 01:08:34;;;;;;;11.43;4.53;;;;;;;;;;5090231;28;20741;-64
2024/01/28 01:11:03;;;;;;;7.37;4.20;;;;;;;;;;5096749;28;20591;-65
2024/01/28 01:13:31;;;;;;;9.97;4.43;;;;;;;;;;5096948;28;20758;-64
2024/01/28 01:15:58;;;;;;;10.47;4.00;;;;;;;;;;5089894;28;20196;-64
2024/01/28 01:18:25;;;;;;;10.00;4.73;;;;;;;;;;5092552;28;20662;-64
2024/01/28 01:20:53;;;;;;;9.30;4.60;;;;;;;;;;5099980;28;20207;-64
2024/01/28 01:23:20;;;;;;;9.97;4.43;;;;;;;;;;5083963;28;20244;-64
2024/01/28 01:25:47;;;;;;;11.50;4.23;;;;;;;;;;5089890;28;20257;-64
2024/01/28 01:28:14;;;;;;;10.87;4.40;;;;;;;;;;5088953;28;20208;-65
2024/01/28 01:30:41;;;;;;;9.07;4.50;;;;;;;;;;5094412;28;20295;-65
2024/01/28 01:33:09;;;;;;;7.70;4.20;;;;;;;;;;5089436;28;20291;-65
2024/01/28 01:35:36;;;;;;;10.30;4.37;;;;;;;;;;5090023;28;20238;-64
2024/01/28 01:38:05;;;;;;;10.73;4.70;;;;;;;;;;5089348;28;20204;-65
2024/01/28 01:40:32;;;;;;;14.47;4.80;;;;;;;;;;5088434;28;20204;-65
2024/01/28 01:42:59;;;;;;;11.20;3.97;;;;;;;;;;5088977;28;20216;-65
2024/01/28 01:45:26;;;;;;;4.13;3.60;;;;;;;;;;5098171;28;20705;-64
2024/01/28 01:47:53;;;;;;;10.90;4.63;;;;;;;;;;5088566;28;20212;-64
2024/01/28 01:50:20;;;;;;;8.30;4.33;;;;;;;;;;5088942;28;20206;-64
2024/01/28 01:52:47;;;;;;;12.57;5.13;;;;;;;;;;5088840;28;20216;-65
2024/01/28 01:55:15;;;;;;;13.17;6.43;;;;;;;;;;5087492;28;20738;-65
2024/01/28 01:57:43;;;;;;;14.47;6.13;;;;;;;;;;5086485;28;20302;-65
2024/01/28 02:00:14;;;;;;;7.73;4.60;;;;;;;;;;5088384;28;20273;-65
2024/01/28 02:02:44;;;;;;;8.33;4.63;;;;;;;;;;5088396;28;20672;-65
2024/01/28 02:05:11;;;;;;;7.70;4.47;;;;;;;;;;5088434;28;20223;-65
2024/01/28 02:07:38;;;;;;;7.90;4.30;;;;;;;;;;5087665;28;20303;-64
2024/01/28 02:10:06;;;;;;;7.07;4.23;;;;;;;;;;5084902;28;20241;-64
2024/01/28 02:12:34;;;;;;;12.50;5.00;;;;;;;;;;5086553;28;20202;-64
2024/01/28 02:15:05;;;;;;;8.17;4.53;;;;;;;;;;5094790;28;20728;-64
2024/01/28 02:17:32;;;;;;;7.70;4.47;;;;;;;;;;5088124;28;20234;-65
2024/01/28 02:19:59;;;;;;;6.97;4.17;;;;;;;;;;5088739;28;20200;-64
2024/01/28 02:22:26;;;;;;;9.53;3.30;;;;;;;;;;5087399;28;20199;-64
2024/01/28 02:24:55;;;;;;;7.83;4.23;;;;;;;;;;5084822;28;20743;-64
2024/01/28 02:27:22;;;;;;;8.30;3.77;;;;;;;;;;5086442;28;20206;-64
2024/01/28 02:29:49;;;;;;;8.43;4.10;;;;;;;;;;5088420;28;20596;-64
2024/01/28 02:32:17;;;;;;;8.93;3.80;;;;;;;;;;5087907;28;20198;-64
2024/01/28 02:34:44;;;;;;;9.73;4.00;;;;;;;;;;5088184;28;20205;-64
2024/01/28 02:37:11;;;;;;;5.37;4.00;;;;;;;;;;5087503;28;20210;-64
2024/01/28 02:39:38;;;;;;;12.83;4.27;;;;;;;;;;5088199;28;20195;-64
2024/01/28 02:42:07;;;;;;;8.23;3.57;;;;;;;;;;5088162;28;20206;-63
2024/01/28 02:44:34;;;;;;;6.77;3.97;;;;;;;;;;5087365;28;20230;-64
2024/01/28 02:47:02;;;;;;;7.33;3.57;;;;;;;;;;5087798;28;20203;-64
2024/01/28 02:49:29;;;;;;;4.73;3.40;;;;;;;;;;5087586;28;20254;-63
2024/01/28 02:51:56;;;;;;;9.33;3.30;;;;;;;;;;5087912;28;20202;-64
2024/01/28 02:54:24;;;;;;;9.43;3.70;;;;;;;;;;5086173;28;20206;-64
2024/01/28 02:56:51;;;;;;;3.70;3.30;;;;;;;;;;5087570;28;20783;-64
2024/01/28 02:59:20;;;;;;;11.30;4.00;;;;;;;;;;5087349;28;20223;-65
2024/01/28 03:01:47;;;;;;;4.63;3.33;;;;;;;;;;5087223;28;20215;-64
2024/01/28 03:04:14;;;;;;;5.67;2.77;;;;;;;;;;5087704;28;20218;-64
2024/01/28 03:06:42;;;;;;;8.23;3.23;;;;;;;;;;5087589;28;20713;-64
2024/01/28 03:09:09;;;;;;;5.23;3.40;;;;;;;;;;5086568;28;20255;-63
2024/01/28 03:11:37;;;;;;;9.33;3.50;;;;;;;;;;5087610;28;20200;-65
2024/01/28 03:14:04;;;;;;;9.87;3.20;;;;;;;;;;5087152;28;20207;-64
2024/01/28 03:16:33;;;;;;;8.33;3.17;;;;;;;;;;5086861;28;20318;-64
2024/01/28 03:19:00;;;;;;;6.97;3.20;;;;;;;;;;5087971;28;20218;-64
2024/01/28 03:21:27;;;;;;;9.90;3.40;;;;;;;;;;5088290;28;20214;-64
2024/01/28 03:23:54;;;;;;;5.67;3.47;;;;;;;;;;5087477;28;20570;-65
2024/01/28 03:26:21;;;;;;;6.23;3.17;;;;;;;;;;5087167;28;20214;-64
2024/01/28 03:28:48;;;;;;;10.87;3.23;;;;;;;;;;5086949;28;20257;-64
2024/01/28 03:31:15;;;;;;;8.90;3.43;;;;;;;;;;5087339;28;20217;-65
2024/01/28 03:33:43;;;;;;;6.43;3.63;;;;;;;;;;5071760;28;20220;-65
2024/01/28 03:36:12;;;;;;;12.93;3.13;;;;;;;;;;5098743;28;20208;-63
2024/01/28 03:38:39;;;;;;;5.60;3.27;;;;;;;;;;5088102;28;20866;-65
2024/01/28 03:41:06;;;;;;;5.13;3.20;;;;;;;;;;5088111;28;20231;-65
2024/01/28 03:43:33;;;;;;;7.47;3.00;;;;;;;;;;5080565;28;20863;-69
2024/01/28 03:46:00;;;;;;;10.93;3.63;;;;;;;;;;5087755;28;20211;-64
2024/01/28 03:48:28;;;;;;;6.97;3.43;;;;;;;;;;5081206;28;20216;-64
2024/01/28 03:50:56;;;;;;;6.47;3.10;;;;;;;;;;5086182;28;20216;-65
2024/01/28 03:53:23;;;;;;;5.27;3.03;;;;;;;;;;5087599;28;20214;-65
2024/01/28 03:55:50;;;;;;;6.80;3.03;;;;;;;;;;5086587;28;20224;-65
2024/01/28 03:58:17;;;;;;;5.80;3.47;;;;;;;;;;5087234;28;20651;-65
2024/01/28 04:00:44;;;;;;;11.13;3.80;;;;;;;;;;5087371;28;20202;-64
2024/01/28 04:03:11;;;;;;;11.27;3.67;;;;;;;;;;5087271;28;20204;-65
2024/01/28 04:05:38;;;;;;;6.80;2.83;;;;;;;;;;5084521;28;20223;-64
2024/01/28 04:08:09;;;;;;;7.50;3.20;;;;;;;;;;5087266;28;20272;-65
2024/01/28 04:10:36;;;;;;;7.83;3.50;;;;;;;;;;5087152;28;20718;-65
2024/01/28 04:13:04;;;;;;;5.20;3.63;;;;;;;;;;5087354;28;20313;-65
2024/01/28 04:15:31;;;;;;;3.73;2.87;;;;;;;;;;5086463;28;20207;-64
2024/01/28 04:17:58;;;;;;;7.00;3.10;;;;;;;;;;5086425;28;20212;-65
2024/01/28 04:20:25;;;;;;;4.73;3.03;;;;;;;;;;5089968;28;20203;-65
2024/01/28 04:22:52;;;;;;;9.50;3.07;;;;;;;;;;5075960;28;20208;-65
2024/01/28 04:25:20;;;;;;;6.97;3.50;;;;;;;;;;5086928;28;20222;-65
2024/01/28 04:27:47;;;;;;;6.53;3.30;;;;;;;;;;5087310;28;20210;-64
2024/01/28 04:30:14;;;;;;;5.37;3.30;;;;;;;;;;5087347;28;20206;-64
2024/01/28 04:32:41;;;;;;;3.23;3.00;;;;;;;;;;5087143;28;20211;-65
2024/01/28 04:35:12;;;;;;;5.27;2.97;;;;;;;;;;5086406;28;20214;-64
2024/01/28 04:37:39;;;;;;;4.43;2.87;;;;;;;;;;5087268;28;20209;-65
2024/01/28 04:40:06;;;;;;;8.20;3.90;;;;;;;;;;5086875;28;20204;-65
2024/01/28 04:42:35;;;;;;;6.57;3.30;;;;;;;;;;5087155;28;20209;-65
2024/01/28 04:45:02;;;;;;;4.97;3.23;;;;;;;;;;5085085;28;20229;-65
2024/01/28 04:47:29;;;;;;;8.23;3.67;;;;;;;;;;5086988;28;20237;-65
2024/01/28 04:49:56;;;;;;;4.23;2.80;;;;;;;;;;5086793;28;20205;-64
2024/01/28 04:52:23;;;;;;;6.80;3.20;;;;;;;;;;5086640;28;20211;-65
2024/01/28 04:54:50;;;;;;;9.17;3.10;;;;;;;;;;5084140;28;20227;-64
2024/01/28 04:57:17;;;;;;;6.73;3.10;;;;;;;;;;5072373;28;20610;-64
2024/01/28 04:59:46;;;;;;;7.37;3.80;;;;;;;;;;5086950;28;20224;-65
2024/01/28 05:02:13;;;;;;;5.40;3.13;;;;;;;;;;5089525;28;20208;-65
2024/01/28 05:04:40;;;;;;;6.90;2.97;;;;;;;;;;5086794;28;20764;-64
2024/01/28 05:07:07;;;;;;;4.57;2.97;;;;;;;;;;5085773;28;20224;-65
2024/01/28 05:09:34;;;;;;;9.27;3.47;;;;;;;;;;5086388;28;20233;-65
2024/01/28 05:12:01;;;;;;;6.13;3.10;;;;;;;;;;5086604;28;20697;-65
2024/01/28 05:14:28;;;;;;;12.23;4.03;;;;;;;;;;5086440;28;20204;-64
2024/01/28 05:16:58;;;;;;;7.20;3.20;;;;;;;;;;5086692;28;20745;-65
2024/01/28 05:19:26;;;;;;;5.20;3.20;;;;;;;;;;5072128;28;20210;-64
2024/01/28 05:21:53;;;;;;;7.07;3.73;;;;;;;;;;5088784;28;20210;-65
2024/01/28 05:24:20;;;;;;;5.83;3.73;;;;;;;;;;5087348;28;20231;-65
2024/01/28 05:26:48;;;;;;;6.53;2.40;;;;;;;;;;5090389;28;20210;-64
2024/01/28 05:29:15;;;;;;;7.13;4.07;;;;;;;;;;5090609;28;20199;-65
2024/01/28 05:31:42;;;;;;;8.70;3.30;;;;;;;;;;5090167;28;20595;-65
2024/01/28 05:34:10;;;;;;;7.80;3.67;;;;;;;;;;5090096;28;20199;-65
2024/01/28 05:36:37;;;;;;;6.93;3.37;;;;;;;;;;5089988;28;20215;-64
2024/01/28 05:39:05;;;;;;;10.30;3.83;;;;;;;;;;5089292;28;20533;-65
2024/01/28 05:41:32;;;;;;;9.03;4.10;;;;;;;;;;5085956;28;20231;-64
2024/01/28 05:43:59;;;;;;;6.77;3.83;;;;;;;;;;5084025;28;20204;-64
2024/01/28 05:46:26;;;;;;;7.97;3.67;;;;;;;;;;5088668;28;20889;-63
2024/01/28 05:48:54;;;;;;;4.20;3.40;;;;;;;;;;5089419;28;20219;-63
2024/01/28 05:51:22;;;;;;;9.20;3.37;;;;;;;;;;5089100;28;20221;-64
2024/01/28 05:53:50;;;;;;;7.73;3.03;;;;;;;;;;5089133;28;20945;-63
2024/01/28 05:56:17;;;;;;;10.23;4.17;;;;;;;;;;5083530;28;20203;-63
2024/01/28 05:58:44;;;;;;;5.77;3.63;;;;;;;;;;5088451;28;20233;-63
2024/01/28 06:01:11;;;;;;;6.17;4.00;;;;;;;;;;5088964;28;20207;-64
2024/01/28 06:03:38;;;;;;;3.97;3.37;;;;;;;;;;5088977;28;20214;-63
2024/01/28 06:06:07;;;;;;;6.40;3.80;;;;;;;;;;5088599;28;20222;-64
2024/01/28 06:08:35;;;;;;;6.80;3.63;;;;;;;;;;5088896;28;20673;-64
2024/01/28 06:11:02;;;;;;;4.53;3.43;;;;;;;;;;5088775;28;20243;-64
2024/01/28 06:13:29;;;;;;;5.50;3.53;;;;;;;;;;5087872;28;20527;-64
2024/01/28 06:15:56;;;;;;;8.50;3.17;;;;;;;;;;5087661;28;20202;-64
2024/01/28 06:18:23;;;;;;;7.63;3.30;;;;;;;;;;5088400;28;20213;-64
2024/01/28 06:20:51;;;;;;;6.10;3.43;;;;;;;;;;5088394;28;20257;-64
2024/01/28 06:23:18;;;;;;;7.57;2.80;;;;;;;;;;5088118;28;20207;-63
2024/01/28 06:25:46;;;;;;;5.20;3.73;;;;;;;;;;5085051;28;20237;-64
2024/01/28 06:28:14;;;;;;;5.10;3.37;;;;;;;;;;5089896;28;20210;-64
2024/01/28 06:30:41;;;;;;;3.70;3.20;;;;;;;;;;5087538;28;20294;-63
2024/01/28 06:33:08;;;;;;;4.53;3.63;;;;;;;;;;5088911;28;20217;-66
2024/01/28 06:35:35;;;;;;;9.20;3.60;;;;;;;;;;5094306;28;20190;-64
2024/01/28 06:38:02;;;;;;;7.43;3.93;;;;;;;;;;5088172;28;20215;-64
2024/01/28 06:40:30;;;;;;;9.60;4.07;;;;;;;;;;5088096;28;20203;-63
2024/01/28 06:42:58;;;;;;;6.70;3.77;;;;;;;;;;5089521;28;20213;-63
2024/01/28 06:45:25;;;;;;;10.83;3.87;;;;;;;;;;5099549;28;20230;-64
2024/01/28 06:47:54;;;;;;;7.43;3.87;;;;;;;;;;5085504;28;20245;-63
2024/01/28 06:50:21;;;;;;;5.43;3.77;;;;;;;;;;5087848;28;20218;-63
2024/01/28 06:52:48;;;;;;;7.47;3.77;;;;;;;;;;5087720;28;20210;-64
2024/01/28 06:55:15;;;;;;;12.80;4.50;;;;;;;;;;5081276;28;20295;-64
2024/01/28 06:57:42;;;;;;;4.33;3.57;;;;;;;;;;5073279;28;20235;-64
2024/01/28 07:00:13;;;;;;;7.33;4.07;;;;;;;;;;5087901;28;20245;-66
2024/01/28 07:02:41;;;;;;;8.00;3.87;;;;;;;;;;5096038;28;20213;-66
2024/01/28 07:05:09;;;;;;;8.73;3.50;;;;;;;;;;5100157;28;20727;-64
2024/01/28 07:07:36;;;;;;;10.83;3.00;;;;;;;;;;5082246;28;20200;-64
2024/01/28 07:10:03;;;;;;;5.80;3.70;;;;;;;;;;5066802;28;20243;-64
2024/01/28 07:12:32;;;;;;;8.13;3.37;;;;;;;;;;5074841;28;20250;-64
2024/01/28 07:14:59;;;;;;;8.23;3.77;;;;;;;;;;5087207;28;20212;-64
2024/01/28 07:17:27;;;;;;;3.80;3.23;;;;;;;;;;5088505;28;20209;-65
2024/01/28 07:19:54;;;;;;;7.27;3.50;;;;;;;;;;5085894;28;20207;-63
2024/01/28 07:22:21;;;;;;;5.43;3.17;;;;;;;;;;5087404;28;20218;-64
2024/01/28 07:24:48;;;;;;;4.37;3.03;;;;;;;;;;5087813;28;20214;-64
2024/01/28 07:27:15;;;;;;;12.20;4.37;;;;;;;;;;5087994;28;20210;-64
2024/01/28 07:29:43;;;;;;;5.37;3.37;;;;;;;;;;5088129;28;20289;-63
2024/01/28 07:32:13;;;;;;;7.03;3.43;;;;;;;;;;5102610;28;20207;-64
2024/01/28 07:34:41;;;;;;;5.53;2.93;;;;;;;;;;5107390;28;20225;-64
2024/01/28 07:37:08;;;;;;;8.73;3.77;;;;;;;;;;5085834;28;20209;-64
2024/01/28 07:39:36;;;;;;;10.17;3.87;;;;;;;;;;5087980;28;20210;-64
2024/01/28 07:42:04;;;;;;;5.10;3.37;;;;;;;;;;5087669;28;20206;-64
2024/01/28 07:44:31;;;;;;;8.27;3.50;;;;;;;;;;5086266;28;20206;-64
2024/01/28 07:46:59;;;;;;;7.90;3.87;;;;;;;;;;5081948;28;20321;-66
2024/01/28 07:49:26;;;;;;;6.87;3.63;;;;;;;;;;5087219;28;20215;-64
2024/01/28 07:51:54;;;;;;;9.63;3.80;;;;;;;;;;5083519;28;20200;-65
2024/01/28 07:54:21;;;;;;;12.10;3.83;;;;;;;;;;5087629;28;20337;-64
2024/01/28 07:56:48;;;;;;;5.47;4.20;;;;;;;;;;5086214;28;20304;-65
2024/01/28 07:59:17;;;;;;;6.63;3.97;;;;;;;;;;5087708;28;20242;-64
2024/01/28 08:01:44;;;;;;;5.37;3.67;;;;;;;;;;5076237;28;20216;-64
2024/01/28 08:04:11;;;;;;;9.00;4.57;;;;;;;;;;5088070;28;20725;-63
2024/01/28 08:06:38;;;;;;;9.93;3.97;;;;;;;;;;5087426;28;20215;-63
2024/01/28 08:09:06;;;;;;;6.43;4.37;;;;;;;;;;5087509;28;20303;-63
2024/01/28 08:11:34;;;;;;;5.20;3.80;;;;;;;;;;5087623;28;20425;-63
2024/01/28 08:14:01;;;;;;;8.67;4.10;;;;;;;;;;5087576;28;20212;-63
2024/01/28 08:16:30;;;;;;;4.63;3.87;;;;;;;;;;5086372;28;20647;-65
2024/01/28 08:18:57;;;;;;;8.00;4.00;;;;;;;;;;5086987;28;20647;-65
2024/01/28 08:21:24;;;;;;;10.90;4.87;;;;;;;;;;5079526;28;20214;-64
2024/01/28 08:23:51;;;;;;;10.70;5.27;;;;;;;;;;5067129;28;20236;-65
2024/01/28 08:26:19;;;;;;;6.23;3.47;;;;;;;;;;5082710;28;20222;-65
2024/01/28 08:28:46;;;;;;;11.33;4.37;;;;;;;;;;5087184;28;20242;-65
2024/01/28 08:31:14;;;;;;;9.20;4.50;;;;;;;;;;5086159;28;20215;-65
2024/01/28 08:33:41;;;;;;;9.63;4.07;;;;;;;;;;5087678;28;20579;-64
2024/01/28 08:36:08;;;;;;;7.20;3.83;;;;;;;;;;5087377;28;20205;-64
2024/01/28 08:38:35;;;;;;;7.10;4.13;;;;;;;;;;5084764;28;20209;-64
2024/01/28 08:41:03;;;;;;;14.67;4.50;;;;;;;;;;5087063;28;20225;-64
2024/01/28 08:43:32;;;;;;;10.93;4.33;;;;;;;;;;5087077;28;20243;-64
2024/01/28 08:46:00;;;;;;;7.80;4.57;;;;;;;;;;5086918;28;20259;-64
2024/01/28 08:48:27;;;;;;;10.37;4.30;;;;;;;;;;5086506;28;20297;-64
2024/01/28 08:50:55;;;;;;;7.10;4.83;;;;;;;;;;5087259;28;20266;-64
2024/01/28 08:53:22;;;;;;;6.57;4.13;;;;;;;;;;5086245;28;20235;-64
2024/01/28 08:55:49;;;;;;;7.30;6.03;;;;;;;;;;5089243;28;20206;-64
2024/01/28 08:58:16;;;;;;;8.43;6.27;;;;;;;;;;5089725;28;20875;-64
2024/01/28 09:00:45;;;;;;;10.07;6.67;;;;;;;;;;5090256;28;20218;-64
2024/01/28 09:03:12;;;;;;;6.97;4.60;;;;;;;;;;5090815;28;20202;-65
2024/01/28 09:05:39;;;;;;;5.93;4.27;;;;;;;;;;5092043;28;20688;-64
2024/01/28 09:08:06;;;;;;;11.70;4.80;;;;;;;;;;5092797;28;20690;-64
2024/01/28 09:10:33;;;;;;;7.77;4.63;;;;;;;;;;5090290;28;20238;-64
2024/01/28 09:13:00;;;;;;;4.03;3.70;;;;;;;;;;5098303;28;20197;-64
2024/01/28 09:15:27;;;;;;;2.93;2.60;;;;;;;;;;5104072;28;20201;-69
2024/01/28 09:17:56;;;;;;;6.80;3.33;;;;;;;;;;5097208;28;20206;-62
2024/01/28 09:20:23;;;;;;;5.93;3.80;;;;;;;;;;5097593;28;20841;-63
2024/01/28 09:22:50;;;;;;;6.10;3.20;;;;;;;;;;5089766;28;20214;-65
2024/01/28 09:25:17;;;;;;;7.87;3.97;;;;;;;;;;5090209;28;20206;-63
2024/01/28 09:27:48;;;;;;;4.30;3.83;;;;;;;;;;5088063;28;20199;-64
2024/01/28 09:30:15;;;;;;;7.97;5.60;;;;;;;;;;5080729;28;20459;-63
2024/01/28 09:32:42;;;;;;;9.93;4.70;;;;;;;;;;5070001;28;20246;-61
2024/01/28 09:35:11;;;;;;;6.30;3.53;;;;;;;;;;5082089;28;20206;-64
2024/01/28 09:37:38;;;;;;;5.07;3.37;;;;;;;;;;5090397;28;20286;-65
2024/01/28 09:40:05;;;;;;;7.67;3.93;;;;;;;;;;5089109;28;20324;-65
2024/01/28 09:42:38;;;;;;;6.80;4.17;;;;;;;;;;5090781;28;20206;-64
2024/01/28 09:45:06;;;;;;;10.33;4.37;;;;;;;;;;5092785;28;20233;-64
2024/01/28 09:47:35;;;;;;;8.90;4.33;;;;;;;;;;5085236;28;20253;-64
2024/01/28 09:50:03;;;;;;;9.00;4.27;;;;;;;;;;5089126;28;20205;-64
2024/01/28 09:52:32;;;;;;;4.33;3.17;;;;;;;;;;5089284;28;20295;-64
2024/01/28 09:55:02;;;;;;;5.47;4.17;;;;;;;;;;5088837;28;20202;-64
2024/01/28 09:57:29;;;;;;;7.23;3.60;;;;;;;;;;5088226;28;20214;-64
2024/01/28 09:59:56;;;;;;;9.20;4.40;;;;;;;;;;5087694;28;20240;-64
2024/01/28 10:02:23;;;;;;;7.87;6.97;;;;;;;;;;5087186;28;20214;-64
2024/01/28 10:04:50;;;;;;;3.73;2.80;;;;;;;;;;5088253;28;20667;-64
2024/01/28 10:07:17;;;;;;;4.97;3.87;;;;;;;;;;5087716;28;20292;-64
2024/01/28 10:09:51;;;;;;;8.17;4.53;;;;;;;;;;5089194;28;20712;-64
2024/01/28 10:12:19;;;;;;;7.20;3.43;;;;;;;;;;5084739;28;20206;-63
2024/01/28 10:14:51;;;;;;;7.10;4.67;;;;;;;;;;5083509;28;20575;-64
2024/01/28 10:17:24;;;;;;;6.90;3.90;;;;;;;;;;5067679;28;20309;-63
2024/01/28 10:19:51;;;;;;;8.37;4.80;;;;;;;;;;5069529;28;20745;-64
2024/01/28 10:22:19;;;;;;;6.90;4.77;;;;;;;;;;5075794;28;20198;-64
2024/01/28 10:24:46;;;;;;;5.70;4.20;;;;;;;;;;5089290;28;20246;-64
2024/01/28 10:27:14;;;;;;;7.93;4.23;;;;;;;;;;5087105;28;20928;-64
2024/01/28 10:29:43;;;;;;;10.80;4.60;;;;;;;;;;5089211;28;20214;-64
2024/01/28 10:32:10;;;;;;;4.30;3.60;;;;;;;;;;5089270;28;20212;-63
2024/01/28 10:34:37;;;;;;;5.83;4.43;;;;;;;;;;5085006;28;20214;-64
2024/01/28 10:37:05;;;;;;;8.37;4.20;;;;;;;;;;5087871;28;20205;-64
2024/01/28 10:39:34;;;;;;;8.20;3.87;;;;;;;;;;5081555;28;20629;-65
2024/01/28 10:42:03;;;;;;;6.13;4.40;;;;;;;;;;5068187;28;20314;-64
2024/01/28 10:44:35;;;;;;;6.23;3.87;;;;;;;;;;5086820;28;20198;-65
2024/01/28 10:47:02;;;;;;;5.37;3.47;;;;;;;;;;5088478;28;20245;-64
2024/01/28 10:49:32;;;;;;;6.23;3.90;;;;;;;;;;5088386;28;20589;-64
2024/01/28 10:52:01;;;;;;;4.20;3.67;;;;;;;;;;5065747;28;20217;-66
2024/01/28 10:54:28;;;;;;;5.17;3.23;;;;;;;;;;5076811;28;20202;-63
2024/01/28 10:56:56;;;;;;;7.80;3.77;;;;;;;;;;5086789;28;20228;-61
2024/01/28 10:59:24;;;;;;;7.73;3.97;;;;;;;;;;5088540;28;20222;-62
2024/01/28 11:01:53;;;;;;;6.73;3.93;;;;;;;;;;5085152;28;20218;-63
2024/01/28 11:04:20;;;;;;;5.60;3.70;;;;;;;;;;5085255;28;20213;-63
2024/01/28 11:06:47;;;;;;;8.07;4.23;;;;;;;;;;5085905;28;20283;-62
2024/01/28 11:09:14;;;;;;;4.70;3.30;;;;;;;;;;5086640;28;20201;-62
2024/01/28 11:11:41;;;;;;;7.27;3.87;;;;;;;;;;5087900;28;20210;-62
2024/01/28 11:14:08;;;;;;;7.13;3.97;;;;;;;;;;5075961;28;20581;-62
2024/01/28 11:16:38;;;;;;;5.50;3.23;;;;;;;;;;5083644;28;20198;-63
2024/01/28 11:19:07;;;;;;;5.63;3.77;;;;;;;;;;5087338;28;20256;-62
2024/01/28 11:21:34;;;;;;;8.47;3.70;;;;;;;;;;5087701;28;20202;-63
2024/01/28 11:24:01;;;;;;;4.47;3.43;;;;;;;;;;5086990;28;20229;-62
2024/01/28 11:26:28;;;;;;;7.70;4.30;;;;;;;;;;5084138;28;20573;-62
2024/01/28 11:28:56;;;;;;;4.23;3.27;;;;;;;;;;5083805;28;20299;-62
2024/01/28 11:31:32;;;;;;;4.50;4.10;;;;;;;;;;5078983;28;20670;-62
2024/01/28 11:34:13;;;;;;;7.27;4.20;;;;;;;;;;5079804;28;20293;-62
2024/01/28 11:36:43;;;;;;;4.27;3.90;;;;;;;;;;5081611;28;20202;-62
2024/01/28 11:39:12;;;;;;;6.63;3.50;;;;;;;;;;5072499;28;20230;-61
2024/01/28 11:41:40;;;;;;;4.80;4.00;;;;;;;;;;5078492;28;20700;-61
2024/01/28 11:44:08;;;;;;;6.77;4.07;;;;;;;;;;5079295;28;20219;-62
2024/01/28 11:46:36;;;;;;;6.17;3.80;;;;;;;;;;5090981;28;20308;-62
2024/01/28 11:49:03;;;;;;;5.00;3.67;;;;;;;;;;5080170;28;20298;-61
2024/01/28 11:51:33;;;;;;;4.67;3.53;;;;;;;;;;5089345;28;20190;-62
2024/01/28 11:54:00;;;;;;;6.60;3.67;;;;;;;;;;5083946;28;20865;-62
2024/01/28 11:56:29;;;;;;;4.20;3.70;;;;;;;;;;5086634;28;20229;-64
2024/01/28 11:58:56;;;;;;;5.50;3.27;;;;;;;;;;5087107;28;20222;-61
2024/01/28 12:01:24;;;;;;;5.57;3.77;;;;;;;;;;5085270;28;20206;-62
2024/01/28 12:03:51;;;;;;;5.73;3.53;;;;;;;;;;5086233;28;20332;-63
2024/01/28 12:06:18;;;;;;;5.20;3.90;;;;;;;;;;5085991;28;20267;-63
2024/01/28 12:08:48;;;;;;;7.57;4.10;;;;;;;;;;5100189;28;20667;-62
2024/01/28 12:11:17;;;;;;;4.97;3.60;;;;;;;;;;5087913;28;20705;-62
2024/01/28 12:13:44;;;;;;;7.00;3.60;;;;;;;;;;5084726;28;20404;-65
2024/01/28 12:16:11;;;;;;;5.43;2.90;;;;;;;;;;5092193;28;20213;-67
2024/01/28 12:18:39;;;;;;;3.93;3.47;;;;;;;;;;5087011;28;20198;-64
2024/01/28 12:21:06;;;;;;;4.77;3.73;;;;;;;;;;5082406;28;20234;-64
2024/01/28 12:23:34;;;;;;;4.20;3.17;;;;;;;;;;5084551;28;20197;-61
2024/01/28 12:26:03;;;;;;;3.97;2.50;;;;;;;;;;5079105;28;20215;-62
2024/01/28 12:28:30;;;;;;;5.80;3.00;;;;;;;;;;5084532;28;20221;-63
2024/01/28 12:30:57;;;;;;;5.27;3.40;;;;;;;;;;5088977;28;20687;-62
2024/01/28 12:33:24;;;;;;;6.10;3.03;;;;;;;;;;5083616;28;20210;-63
2024/01/28 12:35:51;;;;;;;5.47;3.37;;;;;;;;;;5088230;28;20203;-62
2024/01/28 12:38:18;;;;;;;5.13;3.47;;;;;;;;;;5084168;28;20198;-62
2024/01/28 12:40:46;;;;;;;3.10;2.90;;;;;;;;;;5078917;28;20899;-62
2024/01/28 12:43:14;;;;;;;4.47;3.60;;;;;;;;;;5085131;28;20205;-63
2024/01/28 12:45:43;;;;;;;6.60;3.23;;;;;;;;;;5085289;28;20207;-67
2024/01/28 12:48:10;;;;;;;3.20;2.63;;;;;;;;;;5066067;28;20684;-63
2024/01/28 12:50:37;;;;;;;3.43;3.13;;;;;;;;;;5074595;28;20293;-62
2024/01/28 12:53:04;;;;;;;2.67;2.47;;;;;;;;;;5085185;28;20688;-64
2024/01/28 12:55:31;;;;;;;3.30;3.00;;;;;;;;;;5084373;28;20202;-63
2024/01/28 12:57:58;;;;;;;3.97;3.10;;;;;;;;;;5081017;28;20317;-63
2024/01/28 13:00:27;;;;;;;9.30;5.80;;;;;;;;;;5093880;28;20202;-62
2024/01/28 13:02:54;;;;;;;3.57;3.27;;;;;;;;;;5085921;28;20206;-63
2024/01/28 13:05:21;;;;;;;4.83;2.90;;;;;;;;;;5085241;28;20684;-62
2024/01/28 13:07:48;;;;;;;3.67;2.87;;;;;;;;;;5086055;28;20233;-63
2024/01/28 13:10:15;;;;;;;5.90;2.70;;;;;;;;;;5083879;28;20234;-65
2024/01/28 13:12:43;;;;;;;7.10;3.83;;;;;;;;;;5084247;28;20217;-61
2024/01/28 13:15:11;;;;;;;8.20;5.53;;;;;;;;;;5085400;28;20213;-63
2024/01/28 13:17:39;;;;;;;4.63;4.00;;;;;;;;;;5085494;28;20230;-62
2024/01/28 13:20:08;;;;;;;6.10;2.97;;;;;;;;;;5088977;28;20206;-63
2024/01/28 13:22:36;;;;;;;4.80;2.73;;;;;;;;;;5082150;28;20206;-62
2024/01/28 13:25:03;;;;;;;2.40;2.30;;;;;;;;;;5082034;28;20202;-63
2024/01/28 13:27:30;;;;;;;4.80;2.50;;;;;;;;;;5084459;28;20226;-62
2024/01/28 13:29:57;;;;;;;3.10;2.90;;;;;;;;;;5080509;28;20230;-62
2024/01/28 13:32:25;;;;;;;3.30;2.90;;;;;;;;;;5086018;28;20780;-64
2024/01/28 13:34:53;;;;;;;6.10;2.80;;;;;;;;;;5085757;28;20292;-63
2024/01/28 13:37:20;;;;;;;7.53;2.90;;;;;;;;;;5086846;28;20202;-63
2024/01/28 13:39:47;;;;;;;12.00;6.37;;;;;;;;;;5084546;28;20234;-62
2024/01/28 13:42:14;;;;;;;3.27;2.80;;;;;;;;;;5087976;28;20210;-64
2024/01/28 13:44:41;;;;;;;3.10;2.87;;;;;;;;;;5088835;28;20210;-64
2024/01/28 13:47:09;;;;;;;5.43;2.27;;;;;;;;;;5088393;28;20237;-62
2024/01/28 13:49:36;;;;;;;4.60;3.33;;;;;;;;;;5086604;28;20206;-62
2024/01/28 13:52:04;;;;;;;5.87;3.03;;;;;;;;;;5087390;28;20573;-63
2024/01/28 13:54:31;;;;;;;4.87;2.47;;;;;;;;;;5083547;28;20206;-63
2024/01/28 13:56:59;;;;;;;4.63;2.87;;;;;;;;;;5086265;28;20679;-62
2024/01/28 13:59:26;;;;;;;4.73;3.20;;;;;;;;;;5086471;28;20230;-62
2024/01/28 14:01:53;;;;;;;3.50;3.20;;;;;;;;;;5076283;28;20260;-62
2024/01/28 14:04:20;;;;;;;3.43;2.23;;;;;;;;;;5078778;28;20206;-62
2024/01/28 14:06:47;;;;;;;3.67;2.40;;;;;;;;;;5099218;28;20317;-62
2024/01/28 14:09:16;;;;;;;6.63;2.77;;;;;;;;;;5088290;28;20641;-63
2024/01/28 14:11:43;;;;;;;3.10;2.83;;;;;;;;;;5085755;28;20214;-63
2024/01/28 14:14:10;;;;;;;2.83;2.50;;;;;;;;;;5085959;28;20198;-62
2024/01/28 14:16:37;;;;;;;2.50;2.37;;;;;;;;;;5086328;28;20225;-62
2024/01/28 14:19:04;;;;;;;2.30;2.20;;;;;;;;;;5086783;28;20198;-63
2024/01/28 14:21:31;;;;;;;7.07;3.07;;;;;;;;;;5085393;28;20263;-62
2024/01/28 14:23:59;;;;;;;2.67;2.23;;;;;;;;;;5078578;28;20210;-62
2024/01/28 14:26:27;;;;;;;3.43;2.20;;;;;;;;;;5086243;28;20221;-65
2024/01/28 14:28:55;;;;;;;2.07;1.87;;;;;;;;;;5084638;28;20230;-63
2024/01/28 14:31:22;;;;;;;2.47;2.33;;;;;;;;;;5084795;28;20641;-62
2024/01/28 14:33:51;;;;;;;4.87;2.70;;;;;;;;;;5083558;28;20990;-63
2024/01/28 14:36:18;;;;;;;2.60;1.90;;;;;;;;;;5085661;28;20590;-62
2024/01/28 14:38:45;;;;;;;3.17;2.23;;;;;;;;;;5082982;28;20215;-63
2024/01/28 14:41:12;;;;;;;4.43;2.13;;;;;;;;;;5086542;28;20207;-62
2024/01/28 14:43:41;;;;;;;2.97;2.40;;;;;;;;;;5085597;28;20293;-62